Time;durP1;ratioP1;P1;durP2;ratioP2;P2;SDS_P1;SDS_P2;PMS_P1;PMS_P2;Temp;Humidity;BMP_temperature;BMP_pressure;BME280_temperature;BME280_humidity;BME280_pressure;Samples;Min_cycle;Max_cycle;Signal;HPM_P1;HPM_P2
2022/09/12 00:00:47;;;;;;;;;;;20.80;64.20;;;;;;5042057;28;89084;-42
2022/09/12 00:03:13;;;;;;;;;;;20.80;64.20;;;;;;5042908;27;87114;-42
2022/09/12 00:05:45;;;;;;;;;;;20.80;64.30;;;;;;5042911;27;87311;-42
2022/09/12 00:08:11;;;;;;;;;;;20.80;64.30;;;;;;5041891;27;88149;-42
2022/09/12 00:10:40;;;;;;;;;;;20.80;64.20;;;;;;5042810;27;87074;-42
2022/09/12 00:13:06;;;;;;;;;;;20.80;64.30;;;;;;5042751;28;87483;-42
2022/09/12 00:15:32;;;;;;;;;;;20.80;64.20;;;;;;5042705;28;88354;-42
2022/09/12 00:17:57;;;;;;;;;;;20.80;64.20;;;;;;5043269;27;86393;-42
2022/09/12 00:20:23;;;;;;;;;;;20.70;64.20;;;;;;5045499;28;87490;-42
2022/09/12 00:22:48;;;;;;;;;;;20.70;64.20;;;;;;5042708;28;87011;-42
2022/09/12 00:25:14;;;;;;;;;;;20.70;64.20;;;;;;5042031;28;87969;-42
2022/09/12 00:27:39;;;;;;;;;;;20.70;64.30;;;;;;5042227;27;88010;-42
2022/09/12 00:30:05;;;;;;;;;;;20.70;64.30;;;;;;5042585;28;87135;-42
2022/09/12 00:32:31;;;;;;;;;;;20.70;64.20;;;;;;5042876;28;87652;-42
2022/09/12 00:34:56;;;;;;;;;;;20.70;64.30;;;;;;5042510;28;88217;-42
2022/09/12 00:37:22;;;;;;;;;;;20.70;64.30;;;;;;5042555;28;87116;-42
2022/09/12 00:39:47;;;;;;;;;;;20.70;64.30;;;;;;5045333;28;87526;-42
2022/09/12 00:42:13;;;;;;;;;;;20.60;64.20;;;;;;5042685;27;86314;-42
2022/09/12 00:44:41;;;;;;;;;;;20.60;64.20;;;;;;5042855;28;86989;-42
2022/09/12 00:47:06;;;;;;;;;;;20.60;64.30;;;;;;5041901;27;87998;-42
2022/09/12 00:49:34;;;;;;;;;;;20.60;64.30;;;;;;5042012;27;88044;-42
2022/09/12 00:52:02;;;;;;;;;;;20.60;64.20;;;;;;5042531;27;88919;-42
2022/09/12 00:54:35;;;;;;;;;;;20.60;64.20;;;;;;5041860;27;89657;-42
2022/09/12 00:57:03;;;;;;;;;;;20.60;64.20;;;;;;5042435;27;86976;-42
2022/09/12 00:59:37;;;;;;;;;;;20.60;64.20;;;;;;5042247;27;87044;-42
2022/09/12 01:02:03;;;;;;;;;;;20.60;64.20;;;;;;5044674;27;87234;-42
2022/09/12 01:04:29;;;;;;;;;;;20.50;64.20;;;;;;5042333;27;87225;-42
2022/09/12 01:06:55;;;;;;;;;;;20.50;64.10;;;;;;5042432;27;87245;-42
2022/09/12 01:09:22;;;;;;;;;;;20.50;64.20;;;;;;5041791;27;87079;-42
2022/09/12 01:11:48;;;;;;;;;;;20.50;64.10;;;;;;5042039;28;89006;-42
2022/09/12 01:14:15;;;;;;;;;;;20.50;64.00;;;;;;5041111;27;89038;-42
2022/09/12 01:16:41;;;;;;;;;;;20.50;64.10;;;;;;5042055;27;86976;-42
2022/09/12 01:19:15;;;;;;;;;;;20.50;64.00;;;;;;5042181;27;87384;-42
2022/09/12 01:21:41;;;;;;;;;;;20.50;64.10;;;;;;5041685;28;87977;-42
2022/09/12 01:24:13;;;;;;;;;;;20.40;64.00;;;;;;5044759;27;87028;-42
2022/09/12 01:26:38;;;;;;;;;;;20.40;64.20;;;;;;5041770;28;87845;-42
2022/09/12 01:29:14;;;;;;;;;;;20.40;64.20;;;;;;5041817;27;87082;-42
2022/09/12 01:31:53;;;;;;;;;;;20.40;64.00;;;;;;5042620;28;87509;-42
2022/09/12 01:34:27;;;;;;;;;;;20.40;63.90;;;;;;5041676;27;88023;-42
2022/09/12 01:37:01;;;;;;;;;;;20.30;63.90;;;;;;5041549;27;87108;-42
2022/09/12 01:39:38;;;;;;;;;;;20.40;64.10;;;;;;5041369;27;87828;-42
2022/09/12 01:42:04;;;;;;;;;;;20.30;64.00;;;;;;5044314;27;87875;-42
2022/09/12 01:44:29;;;;;;;;;;;20.30;64.00;;;;;;5045190;27;87211;-42
2022/09/12 01:47:00;;;;;;;;;;;20.30;64.00;;;;;;5047554;27;87439;-42
2022/09/12 01:49:27;;;;;;;;;;;20.30;64.00;;;;;;5045358;27;87302;-42
2022/09/12 01:51:57;;;;;;;;;;;20.30;64.00;;;;;;5044953;27;87442;-42
2022/09/12 01:54:44;;;;;;;;;;;20.30;64.00;;;;;;5044452;27;89557;-42
2022/09/12 01:57:13;;;;;;;;;;;20.30;64.00;;;;;;5045294;27;86250;-42
2022/09/12 01:59:42;;;;;;;;;;;20.20;63.90;;;;;;5044763;28;87096;-42
2022/09/12 02:02:12;;;;;;;;;;;20.20;64.00;;;;;;5044081;28;88222;-42
2022/09/12 02:04:43;;;;;;;;;;;20.20;64.00;;;;;;5044238;27;88060;-42
2022/09/12 02:07:35;;;;;;;;;;;20.20;63.90;;;;;;5044947;27;88374;-42
2022/09/12 02:10:12;;;;;;;;;;;20.20;64.00;;;;;;5029700;27;89405;-42
2022/09/12 02:12:49;;;;;;;;;;;20.20;64.00;;;;;;5045075;27;87497;-42
2022/09/12 02:15:16;;;;;;;;;;;20.10;63.90;;;;;;5044562;27;87603;-42
2022/09/12 02:17:43;;;;;;;;;;;20.10;63.90;;;;;;5044335;27;87072;-42
2022/09/12 02:20:15;;;;;;;;;;;20.10;64.00;;;;;;5044852;27;87547;-42
2022/09/12 02:22:41;;;;;;;;;;;20.10;63.90;;;;;;5044535;28;87866;-42
2022/09/12 02:25:10;;;;;;;;;;;20.10;64.00;;;;;;5044670;27;87049;-42
2022/09/12 02:27:38;;;;;;;;;;;20.10;63.90;;;;;;5044330;27;88944;-42
2022/09/12 02:30:05;;;;;;;;;;;20.10;64.00;;;;;;5043312;27;91402;-42
2022/09/12 02:32:41;;;;;;;;;;;20.10;64.00;;;;;;5047174;27;87023;-42
2022/09/12 02:35:12;;;;;;;;;;;20.10;63.90;;;;;;5043696;27;89446;-42
2022/09/12 02:37:53;;;;;;;;;;;20.10;63.90;;;;;;5044107;27;87023;-42
2022/09/12 02:40:18;;;;;;;;;;;20.00;63.90;;;;;;5044513;28;87491;-42
2022/09/12 02:42:44;;;;;;;;;;;20.00;63.90;;;;;;5044040;28;88502;-42
2022/09/12 02:45:11;;;;;;;;;;;20.00;63.90;;;;;;5044579;27;87080;-42
2022/09/12 02:47:57;;;;;;;;;;;20.00;63.90;;;;;;5044419;27;86488;-42
2022/09/12 02:50:22;;;;;;;;;;;20.00;63.80;;;;;;5043094;28;88823;-42
2022/09/12 02:52:49;;;;;;;;;;;20.00;63.80;;;;;;5046675;27;87124;-42
2022/09/12 02:55:15;;;;;;;;;;;19.90;63.90;;;;;;5043040;27;88998;-42
2022/09/12 02:57:41;;;;;;;;;;;19.90;63.80;;;;;;5043885;27;87017;-42
2022/09/12 03:00:07;;;;;;;;;;;19.90;63.90;;;;;;5044212;28;87554;-42
2022/09/12 03:02:51;;;;;;;;;;;19.90;63.80;;;;;;5043077;27;88955;-42
2022/09/12 03:05:23;;;;;;;;;;;19.90;63.90;;;;;;5044041;27;87042;-42
2022/09/12 03:07:55;;;;;;;;;;;19.90;63.70;;;;;;5043333;27;88748;-42
2022/09/12 03:10:32;;;;;;;;;;;19.90;63.80;;;;;;5043646;28;87968;-42
2022/09/12 03:13:00;;;;;;;;;;;19.90;63.90;;;;;;5044270;27;86184;-42
2022/09/12 03:15:49;;;;;;;;;;;19.90;63.80;;;;;;5046536;28;86982;-42
2022/09/12 03:18:16;;;;;;;;;;;19.90;63.90;;;;;;5037654;28;87188;-42
2022/09/12 03:20:45;;;;;;;;;;;19.80;63.80;;;;;;5043070;27;89038;-42
2022/09/12 03:23:18;;;;;;;;;;;19.80;63.80;;;;;;5043143;27;90517;-42
2022/09/12 03:25:47;;;;;;;;;;;19.80;63.80;;;;;;5043591;28;87218;-42
2022/09/12 03:28:14;;;;;;;;;;;19.80;63.70;;;;;;5043503;28;87501;-42
2022/09/12 03:30:50;;;;;;;;;;;19.80;63.70;;;;;;5043222;27;88072;-42
2022/09/12 03:33:17;;;;;;;;;;;19.80;63.70;;;;;;5043341;27;86894;-42
2022/09/12 03:35:44;;;;;;;;;;;19.70;63.80;;;;;;5043201;27;89184;-42
2022/09/12 03:38:09;;;;;;;;;;;19.70;63.70;;;;;;5046628;27;87343;-42
2022/09/12 03:40:36;;;;;;;;;;;19.70;63.70;;;;;;5043365;27;87983;-42
2022/09/12 03:43:02;;;;;;;;;;;19.70;63.70;;;;;;5042924;28;88131;-42
2022/09/12 03:45:28;;;;;;;;;;;19.70;63.70;;;;;;5042807;27;88048;-42
2022/09/12 03:47:53;;;;;;;;;;;19.70;63.70;;;;;;5043206;27;88169;-42
2022/09/12 03:50:19;;;;;;;;;;;19.70;63.80;;;;;;5042899;28;88002;-42
2022/09/12 03:52:44;;;;;;;;;;;19.70;63.80;;;;;;5043078;27;87093;-42
2022/09/12 03:55:11;;;;;;;;;;;19.60;63.70;;;;;;5043233;28;87124;-42
2022/09/12 03:57:36;;;;;;;;;;;19.60;63.70;;;;;;5042640;27;89371;-42
2022/09/12 04:00:03;;;;;;;;;;;19.60;63.80;;;;;;5045976;28;87004;-42
2022/09/12 04:02:28;;;;;;;;;;;19.60;63.80;;;;;;5042592;27;87294;-42
2022/09/12 04:04:54;;;;;;;;;;;19.60;63.70;;;;;;5042300;28;87309;-42
2022/09/12 04:07:19;;;;;;;;;;;19.60;63.80;;;;;;5043079;28;87551;-42
2022/09/12 04:09:45;;;;;;;;;;;19.50;63.70;;;;;;5041954;28;89008;-42
2022/09/12 04:12:11;;;;;;;;;;;19.50;63.80;;;;;;5042531;27;87117;-42
2022/09/12 04:14:37;;;;;;;;;;;19.50;63.80;;;;;;5042847;27;87411;-42
2022/09/12 04:17:03;;;;;;;;;;;19.50;63.70;;;;;;5042391;27;88593;-42
2022/09/12 04:19:28;;;;;;;;;;;19.50;63.80;;;;;;5042677;27;87103;-42
2022/09/12 04:21:54;;;;;;;;;;;19.50;63.70;;;;;;5045445;27;87343;-42
2022/09/12 04:24:19;;;;;;;;;;;19.50;63.80;;;;;;5043103;27;87298;-42
2022/09/12 04:26:45;;;;;;;;;;;19.50;63.70;;;;;;5043331;28;87396;-42
2022/09/12 04:29:11;;;;;;;;;;;19.50;63.70;;;;;;5042377;28;87276;-42
2022/09/12 04:31:37;;;;;;;;;;;19.40;63.60;;;;;;5042598;27;87148;-42
2022/09/12 04:34:02;;;;;;;;;;;19.40;63.70;;;;;;5042086;28;87772;-42
2022/09/12 04:36:28;;;;;;;;;;;19.40;63.60;;;;;;5041969;27;89520;-42
2022/09/12 04:38:54;;;;;;;;;;;19.40;63.60;;;;;;5042747;28;87063;-42
2022/09/12 04:41:30;;;;;;;;;;;19.40;63.70;;;;;;5045123;27;87350;-42
2022/09/12 04:43:57;;;;;;;;;;;19.40;63.70;;;;;;5042346;28;87096;-42
2022/09/12 04:46:23;;;;;;;;;;;19.40;63.50;;;;;;5042278;27;88617;-42
2022/09/12 04:48:49;;;;;;;;;;;19.30;63.60;;;;;;5041997;27;87783;-42
2022/09/12 04:51:16;;;;;;;;;;;19.40;63.60;;;;;;5042641;27;86390;-42
2022/09/12 04:53:41;;;;;;;;;;;19.40;63.50;;;;;;5042546;27;87447;-42
2022/09/12 04:56:08;;;;;;;;;;;19.40;63.60;;;;;;5042002;27;88192;-42
2022/09/12 04:58:34;;;;;;;;;;;19.30;63.50;;;;;;5041456;27;88049;-42
2022/09/12 05:01:04;;;;;;;;;;;19.30;63.50;;;;;;5042065;28;88582;-42
2022/09/12 05:03:30;;;;;;;;;;;19.30;63.50;;;;;;5044324;27;87980;-42
2022/09/12 05:05:55;;;;;;;;;;;19.30;63.60;;;;;;5042270;27;87350;-42
2022/09/12 05:08:21;;;;;;;;;;;19.30;64.10;;;;;;5041265;28;88490;-42
2022/09/12 05:10:47;;;;;;;;;;;19.30;63.50;;;;;;5042179;28;87124;-42
2022/09/12 05:13:12;;;;;;;;;;;19.30;63.50;;;;;;5042296;27;87070;-42
2022/09/12 05:15:38;;;;;;;;;;;19.20;63.70;;;;;;5044840;27;86870;-42
2022/09/12 05:18:05;;;;;;;;;;;19.20;63.60;;;;;;5045374;27;87134;-42
2022/09/12 05:20:31;;;;;;;;;;;19.20;63.60;;;;;;5045413;28;89282;-42
2022/09/12 05:22:58;;;;;;;;;;;19.20;63.60;;;;;;5044444;27;88995;-42
2022/09/12 05:25:24;;;;;;;;;;;19.20;63.70;;;;;;5048151;27;87006;-42
2022/09/12 05:27:51;;;;;;;;;;;19.20;63.60;;;;;;5045203;27;88192;-42
2022/09/12 05:30:16;;;;;;;;;;;19.20;63.60;;;;;;5045265;27;87098;-42
2022/09/12 05:32:42;;;;;;;;;;;19.20;63.50;;;;;;5045320;28;87476;-42
2022/09/12 05:35:07;;;;;;;;;;;19.20;63.50;;;;;;5044999;28;88025;-42
2022/09/12 05:37:33;;;;;;;;;;;19.20;63.60;;;;;;5045270;28;87141;-42
2022/09/12 05:39:58;;;;;;;;;;;19.20;63.50;;;;;;5045743;28;86556;-42
2022/09/12 05:42:24;;;;;;;;;;;19.10;63.50;;;;;;5044963;28;88077;-42
2022/09/12 05:44:50;;;;;;;;;;;19.10;63.60;;;;;;5045339;27;87403;-42
2022/09/12 05:47:16;;;;;;;;;;;19.10;63.60;;;;;;5047114;27;88034;-42
2022/09/12 05:49:44;;;;;;;;;;;19.10;63.50;;;;;;5044870;27;87176;-42
2022/09/12 05:52:09;;;;;;;;;;;19.10;63.40;;;;;;5044706;27;87802;-42
2022/09/12 05:54:35;;;;;;;;;;;19.10;63.50;;;;;;5045041;28;88363;-42
2022/09/12 05:57:00;;;;;;;;;;;19.10;63.50;;;;;;5045169;28;87207;-41
2022/09/12 05:59:27;;;;;;;;;;;19.10;63.60;;;;;;5045119;28;87348;-42
2022/09/12 06:01:52;;;;;;;;;;;19.10;63.70;;;;;;5044162;28;88900;-42
2022/09/12 06:04:18;;;;;;;;;;;19.10;63.60;;;;;;5045525;28;86366;-41
2022/09/12 06:06:44;;;;;;;;;;;19.00;63.60;;;;;;5044606;27;88059;-42
2022/09/12 06:09:10;;;;;;;;;;;19.00;63.60;;;;;;5046986;27;87261;-42
2022/09/12 06:11:36;;;;;;;;;;;19.00;63.60;;;;;;5044023;27;89194;-42
2022/09/12 06:14:02;;;;;;;;;;;19.10;63.60;;;;;;5044497;27;88050;-42
2022/09/12 06:16:29;;;;;;;;;;;19.00;64.30;;;;;;5044728;27;87101;-42
2022/09/12 06:18:56;;;;;;;;;;;19.00;63.60;;;;;;5044522;27;88864;-41
2022/09/12 06:21:22;;;;;;;;;;;19.10;63.50;;;;;;5044136;27;87851;-42
2022/09/12 06:23:48;;;;;;;;;;;19.10;63.50;;;;;;5044769;27;87068;-42
2022/09/12 06:26:15;;;;;;;;;;;19.10;63.50;;;;;;5043792;27;87311;-41
2022/09/12 06:28:42;;;;;;;;;;;19.00;63.50;;;;;;5044414;27;88745;-42
2022/09/12 06:31:13;;;;;;;;;;;19.00;63.50;;;;;;5047096;28;87516;-42
2022/09/12 06:33:39;;;;;;;;;;;19.00;63.70;;;;;;5044018;28;88252;-42
2022/09/12 06:36:06;;;;;;;;;;;19.00;63.70;;;;;;5043861;27;88091;-42
2022/09/12 06:38:32;;;;;;;;;;;19.00;63.60;;;;;;5044076;28;90149;-42
2022/09/12 06:40:59;;;;;;;;;;;19.00;63.60;;;;;;5043938;27;88602;-42
2022/09/12 06:43:25;;;;;;;;;;;19.00;63.70;;;;;;5043880;27;87281;-42
2022/09/12 06:45:51;;;;;;;;;;;19.00;63.70;;;;;;5044020;27;87233;-42
2022/09/12 06:48:16;;;;;;;;;;;19.00;63.70;;;;;;5044116;28;88057;-42
2022/09/12 06:50:42;;;;;;;;;;;19.00;63.70;;;;;;5047183;28;87089;-42
2022/09/12 06:53:08;;;;;;;;;;;19.00;63.70;;;;;;5044068;27;88703;-42
2022/09/12 06:55:34;;;;;;;;;;;19.00;63.80;;;;;;5044017;27;87141;-42
2022/09/12 06:57:59;;;;;;;;;;;18.90;63.90;;;;;;5044000;28;87169;-42
2022/09/12 07:00:25;;;;;;;;;;;18.90;64.00;;;;;;5042990;28;89122;-43
2022/09/12 07:02:55;;;;;;;;;;;18.90;64.10;;;;;;5043598;28;87125;-42
2022/09/12 07:05:21;;;;;;;;;;;18.90;64.00;;;;;;5043811;27;89253;-42
2022/09/12 07:07:46;;;;;;;;;;;18.90;64.00;;;;;;5042763;27;88762;-42
2022/09/12 07:10:12;;;;;;;;;;;18.90;64.00;;;;;;5043803;27;87013;-42
2022/09/12 07:12:38;;;;;;;;;;;19.00;64.10;;;;;;5046583;27;87065;-42
2022/09/12 07:15:03;;;;;;;;;;;18.90;64.10;;;;;;5043941;27;87112;-42
2022/09/12 07:17:29;;;;;;;;;;;18.90;64.20;;;;;;5044167;27;87575;-42
2022/09/12 07:19:55;;;;;;;;;;;18.90;64.10;;;;;;5043347;28;88081;-42
2022/09/12 07:22:20;;;;;;;;;;;18.90;64.20;;;;;;5043318;27;87469;-42
2022/09/12 07:24:46;;;;;;;;;;;18.90;64.20;;;;;;5043246;28;88584;-42
2022/09/12 07:27:11;;;;;;;;;;;18.80;64.30;;;;;;5043199;27;87948;-42
2022/09/12 07:29:37;;;;;;;;;;;18.80;65.00;;;;;;5043634;28;87290;-42
2022/09/12 07:32:04;;;;;;;;;;;18.90;64.40;;;;;;5043097;27;89020;-42
2022/09/12 07:34:30;;;;;;;;;;;18.80;64.30;;;;;;5046000;27;89307;-42
2022/09/12 07:36:55;;;;;;;;;;;18.80;64.30;;;;;;5043500;27;87994;-42
2022/09/12 07:39:21;;;;;;;;;;;18.90;64.50;;;;;;5042070;28;88101;-42
2022/09/12 07:41:47;;;;;;;;;;;18.80;64.50;;;;;;5044023;28;86568;-42
2022/09/12 07:44:12;;;;;;;;;;;18.80;64.50;;;;;;5043337;27;87048;-42
2022/09/12 07:46:38;;;;;;;;;;;18.80;64.50;;;;;;5042645;28;87247;-42
2022/09/12 07:49:04;;;;;;;;;;;18.80;64.60;;;;;;5042729;27;88004;-42
2022/09/12 07:51:30;;;;;;;;;;;18.80;65.00;;;;;;5043267;28;88500;-42
2022/09/12 07:53:56;;;;;;;;;;;18.80;64.30;;;;;;5042925;27;87962;-42
2022/09/12 07:56:22;;;;;;;;;;;18.80;64.40;;;;;;5046100;27;87047;-42
2022/09/12 07:58:47;;;;;;;;;;;18.80;64.40;;;;;;5042518;27;88455;-42
2022/09/12 08:01:14;;;;;;;;;;;18.80;64.40;;;;;;5042878;28;87210;-42
2022/09/12 08:03:40;;;;;;;;;;;18.80;64.40;;;;;;5042899;28;87648;-42
2022/09/12 08:06:07;;;;;;;;;;;18.80;64.40;;;;;;5043357;27;87277;-42
2022/09/12 08:08:33;;;;;;;;;;;18.80;64.60;;;;;;5042853;27;87096;-42
2022/09/12 08:11:00;;;;;;;;;;;18.70;64.50;;;;;;5042706;27;88944;-42
2022/09/12 08:13:26;;;;;;;;;;;18.80;64.60;;;;;;5041739;27;90788;-42
2022/09/12 08:15:55;;;;;;;;;;;18.70;64.80;;;;;;5042790;28;87171;-42
2022/09/12 08:18:21;;;;;;;;;;;18.80;64.60;;;;;;5045406;27;87435;-42
2022/09/12 08:20:47;;;;;;;;;;;18.80;64.50;;;;;;5042946;28;87454;-42
2022/09/12 08:23:12;;;;;;;;;;;18.80;64.60;;;;;;5042398;27;89061;-42
2022/09/12 08:25:38;;;;;;;;;;;18.70;64.70;;;;;;5042384;28;88008;-42
2022/09/12 08:28:03;;;;;;;;;;;18.70;64.70;;;;;;5042456;28;87144;-42
2022/09/12 08:30:29;;;;;;;;;;;18.70;64.60;;;;;;5042993;28;87406;-42
2022/09/12 08:32:54;;;;;;;;;;;18.70;64.60;;;;;;5042310;28;87832;-42
2022/09/12 08:35:20;;;;;;;;;;;18.70;64.60;;;;;;5042977;28;87145;-42
2022/09/12 08:37:45;;;;;;;;;;;18.80;64.60;;;;;;5042125;28;88393;-42
2022/09/12 08:40:14;;;;;;;;;;;18.70;64.60;;;;;;5045083;28;88381;-42
2022/09/12 08:42:50;;;;;;;;;;;18.70;64.80;;;;;;5042342;27;87369;-42
2022/09/12 08:45:19;;;;;;;;;;;18.70;64.70;;;;;;5042007;27;89378;-42
2022/09/12 08:47:45;;;;;;;;;;;18.70;64.70;;;;;;5042208;27;87132;-42
2022/09/12 08:50:14;;;;;;;;;;;18.70;64.80;;;;;;5044387;28;88323;-42
2022/09/12 08:52:57;;;;;;;;;;;18.70;64.70;;;;;;5045519;27;89584;-42
2022/09/12 08:55:23;;;;;;;;;;;18.70;64.80;;;;;;5046272;27;86331;-42
2022/09/12 08:57:48;;;;;;;;;;;18.70;64.80;;;;;;5045622;27;87847;-42
2022/09/12 09:00:15;;;;;;;;;;;18.70;64.70;;;;;;5048535;27;87979;-42
2022/09/12 09:02:56;;;;;;;;;;;18.80;64.70;;;;;;5044873;27;89274;-42
2022/09/12 09:05:39;;;;;;;;;;;18.80;64.70;;;;;;5045498;28;88178;-42
2022/09/12 09:08:05;;;;;;;;;;;18.80;64.60;;;;;;5044948;27;87181;-42
2022/09/12 09:10:46;;;;;;;;;;;18.80;64.70;;;;;;5046004;28;87373;-42
2022/09/12 09:16:20;;;;;;;;;;;18.80;64.60;;;;;;5045890;28;87056;-42
2022/09/12 09:18:47;;;;;;;;;;;18.80;64.60;;;;;;5045748;27;87498;-42
2022/09/12 09:21:15;;;;;;;;;;;18.80;64.70;;;;;;5045813;27;87267;-42
2022/09/12 09:23:43;;;;;;;;;;;18.80;64.70;;;;;;5048518;27;87161;-42
2022/09/12 09:26:13;;;;;;;;;;;18.80;64.70;;;;;;5045088;27;87953;-42
2022/09/12 09:28:38;;;;;;;;;;;18.80;64.70;;;;;;5044674;27;88327;-42
2022/09/12 09:31:09;;;;;;;;;;;18.80;64.60;;;;;;5045517;28;88314;-42
2022/09/12 09:33:36;;;;;;;;;;;18.80;64.70;;;;;;5045049;27;89441;-42
2022/09/12 09:36:05;;;;;;;;;;;18.80;64.80;;;;;;5045316;27;87235;-42
2022/09/12 09:38:30;;;;;;;;;;;18.70;64.80;;;;;;5044936;27;88316;-42
2022/09/12 09:41:12;;;;;;;;;;;18.80;64.80;;;;;;5045121;28;88037;-42
2022/09/12 09:43:38;;;;;;;;;;;18.70;64.80;;;;;;5045330;28;86925;-42
2022/09/12 09:46:04;;;;;;;;;;;18.70;64.80;;;;;;5048298;27;87514;-42
2022/09/12 09:48:31;;;;;;;;;;;18.80;64.90;;;;;;5045175;27;86926;-42
2022/09/12 09:51:00;;;;;;;;;;;18.80;64.70;;;;;;5045266;28;87689;-43
2022/09/12 09:53:49;;;;;;;;;;;18.80;64.70;;;;;;5043818;28;90608;-42
2022/09/12 09:56:26;;;;;;;;;;;18.80;64.80;;;;;;5044783;27;87102;-42
2022/09/12 09:58:51;;;;;;;;;;;18.80;64.80;;;;;;5045240;27;87365;-42
2022/09/12 10:01:18;;;;;;;;;;;18.80;64.80;;;;;;5043422;27;89574;-42
2022/09/12 10:03:51;;;;;;;;;;;18.80;64.80;;;;;;5044828;27;87167;-42
2022/09/12 10:06:22;;;;;;;;;;;18.80;64.80;;;;;;5044831;28;87423;-42
2022/09/12 10:08:48;;;;;;;;;;;18.90;64.80;;;;;;5046935;27;88065;-42
2022/09/12 10:11:14;;;;;;;;;;;18.90;64.80;;;;;;5045030;27;88237;-42
2022/09/12 10:13:41;;;;;;;;;;;18.80;64.70;;;;;;5044637;28;88072;-42
2022/09/12 10:16:18;;;;;;;;;;;18.80;64.70;;;;;;5044833;27;87097;-42
2022/09/12 10:18:43;;;;;;;;;;;18.80;64.80;;;;;;5044341;27;87931;-42
2022/09/12 10:21:28;;;;;;;;;;;18.80;64.80;;;;;;5043888;28;88226;-42
2022/09/12 10:24:12;;;;;;;;;;;18.80;64.90;;;;;;5044469;27;87158;-42
2022/09/12 10:26:38;;;;;;;;;;;18.80;65.00;;;;;;5044742;27;87002;-42
2022/09/12 10:29:12;;;;;;;;;;;18.80;64.90;;;;;;5044136;27;87045;-42
2022/09/12 10:31:47;;;;;;;;;;;18.80;64.90;;;;;;5047223;27;87079;-42
2022/09/12 10:34:31;;;;;;;;;;;18.80;65.10;;;;;;5043806;27;89326;-42
2022/09/12 10:37:02;;;;;;;;;;;18.80;65.00;;;;;;5044688;27;86398;-42
2022/09/12 10:39:27;;;;;;;;;;;18.80;64.80;;;;;;5044292;27;87064;-42
2022/09/12 10:41:54;;;;;;;;;;;18.90;64.80;;;;;;5043784;28;89356;-42
2022/09/12 10:44:25;;;;;;;;;;;18.90;64.80;;;;;;5043184;27;88134;-42
2022/09/12 10:46:50;;;;;;;;;;;18.80;64.80;;;;;;5043878;27;89537;-42
2022/09/12 10:49:16;;;;;;;;;;;18.90;64.90;;;;;;5044015;27;88017;-42
2022/09/12 10:51:42;;;;;;;;;;;18.90;64.80;;;;;;5044179;27;87104;-42
2022/09/12 10:54:09;;;;;;;;;;;18.90;64.80;;;;;;5046645;27;89079;-42
2022/09/12 10:56:37;;;;;;;;;;;18.90;64.80;;;;;;5043945;27;87080;-42
2022/09/12 10:59:21;;;;;;;;;;;18.90;64.90;;;;;;5043881;28;87380;-42
2022/09/12 11:01:56;;;;;;;;;;;18.90;64.90;;;;;;5044243;27;87182;-42
2022/09/12 11:04:25;;;;;;;;;;;18.80;64.90;;;;;;5044064;28;87062;-42
2022/09/12 11:07:09;;;;;;;;;;;18.90;65.00;;;;;;5044037;28;87298;-42
2022/09/12 11:09:40;;;;;;;;;;;18.90;64.90;;;;;;5042507;27;89065;-42
2022/09/12 11:12:24;;;;;;;;;;;18.90;64.90;;;;;;5043868;27;86972;-42
2022/09/12 11:14:52;;;;;;;;;;;18.90;64.90;;;;;;5046364;27;87800;-42
2022/09/12 11:17:24;;;;;;;;;;;18.90;64.70;;;;;;5043522;27;87120;-42
2022/09/12 11:19:50;;;;;;;;;;;18.90;64.80;;;;;;5043508;28;87161;-42
2022/09/12 11:22:32;;;;;;;;;;;19.00;64.80;;;;;;5043467;28;88069;-42
2022/09/12 11:25:11;;;;;;;;;;;18.90;64.70;;;;;;5043973;27;86993;-42
2022/09/12 11:27:52;;;;;;;;;;;18.90;64.80;;;;;;5043985;28;86709;-42
2022/09/12 11:30:17;;;;;;;;;;;18.90;64.80;;;;;;5043266;28;88159;-42
2022/09/12 11:32:55;;;;;;;;;;;18.90;64.80;;;;;;5043578;28;87513;-42
2022/09/12 11:35:28;;;;;;;;;;;18.90;64.80;;;;;;5043004;27;87866;-42
2022/09/12 11:38:02;;;;;;;;;;;18.90;64.80;;;;;;5046138;27;87818;-42
2022/09/12 11:40:35;;;;;;;;;;;18.90;64.80;;;;;;5043515;27;87993;-42
2022/09/12 11:43:10;;;;;;;;;;;18.90;64.80;;;;;;5042854;28;89491;-42
2022/09/12 11:45:40;;;;;;;;;;;18.90;64.80;;;;;;5043305;27;87083;-42
2022/09/12 11:48:10;;;;;;;;;;;19.00;64.80;;;;;;5043261;27;86990;-42
2022/09/12 11:50:36;;;;;;;;;;;19.00;64.70;;;;;;5042762;28;87948;-42
2022/09/12 11:53:13;;;;;;;;;;;18.90;64.60;;;;;;5043746;27;86382;-42
2022/09/12 11:55:49;;;;;;;;;;;19.00;64.50;;;;;;5043490;27;86931;-42
2022/09/12 11:58:16;;;;;;;;;;;19.00;64.50;;;;;;5042734;27;88612;-42
2022/09/12 12:00:51;;;;;;;;;;;19.00;64.50;;;;;;5045490;28;88088;-42
2022/09/12 12:03:22;;;;;;;;;;;19.00;64.40;;;;;;5042500;28;89622;-42
2022/09/12 12:05:50;;;;;;;;;;;19.00;64.40;;;;;;5043064;28;86878;-42
2022/09/12 12:08:16;;;;;;;;;;;19.00;64.40;;;;;;5042264;27;87825;-43
2022/09/12 12:10:43;;;;;;;;;;;19.00;64.40;;;;;;5042723;27;87809;-42
2022/09/12 12:13:14;;;;;;;;;;;19.00;64.40;;;;;;5043092;27;87132;-42
2022/09/12 12:15:44;;;;;;;;;;;19.00;64.40;;;;;;5043081;28;87437;-42
2022/09/12 12:18:15;;;;;;;;;;;19.00;64.40;;;;;;5042930;27;87487;-42
2022/09/12 12:20:41;;;;;;;;;;;19.00;64.20;;;;;;5043147;28;87116;-42
2022/09/12 12:23:20;;;;;;;;;;;19.10;64.30;;;;;;5045268;27;87016;-42
2022/09/12 12:25:50;;;;;;;;;;;19.10;64.30;;;;;;5041790;27;87958;-42
2022/09/12 12:28:36;;;;;;;;;;;19.10;64.20;;;;;;5042837;27;88432;-42
2022/09/12 12:31:02;;;;;;;;;;;19.10;64.10;;;;;;5042114;28;88312;-42
2022/09/12 12:33:27;;;;;;;;;;;19.10;64.10;;;;;;5042846;27;87100;-42
2022/09/12 12:35:59;;;;;;;;;;;19.20;64.10;;;;;;5042766;28;87523;-42
2022/09/12 12:38:32;;;;;;;;;;;19.10;64.00;;;;;;5042501;28;87996;-42
2022/09/12 12:41:15;;;;;;;;;;;19.10;64.10;;;;;;5042670;28;86987;-42
2022/09/12 12:43:41;;;;;;;;;;;19.10;64.10;;;;;;5043125;27;87437;-42
2022/09/12 12:49:02;;;;;;;;;;;19.20;64.00;;;;;;5042757;28;87064;-42
2022/09/12 12:51:36;;;;;;;;;;;19.10;63.90;;;;;;5041540;27;88438;-42
2022/09/12 12:54:22;;;;;;;;;;;19.20;64.00;;;;;;5042423;28;87139;-42
2022/09/12 12:56:50;;;;;;;;;;;19.20;64.00;;;;;;5041930;27;88977;-42
2022/09/12 12:59:18;;;;;;;;;;;19.10;64.00;;;;;;5041943;27;88360;-42
2022/09/12 13:01:45;;;;;;;;;;;19.20;64.00;;;;;;5042358;28;87149;-42
2022/09/12 13:04:14;;;;;;;;;;;19.20;64.00;;;;;;5041949;27;87580;-42
2022/09/12 13:06:40;;;;;;;;;;;19.20;64.10;;;;;;5041831;28;88245;-42
2022/09/12 13:09:20;;;;;;;;;;;19.20;64.10;;;;;;5045052;27;86220;-42
2022/09/12 13:11:53;;;;;;;;;;;19.20;64.00;;;;;;5041793;27;88006;-42
2022/09/12 13:14:34;;;;;;;;;;;19.20;64.00;;;;;;5042442;27;86766;-42
2022/09/12 13:17:00;;;;;;;;;;;19.20;64.60;;;;;;5041544;28;88012;-42
2022/09/12 13:19:28;;;;;;;;;;;19.20;64.00;;;;;;5041919;27;87924;-42
2022/09/12 13:22:00;;;;;;;;;;;19.10;64.00;;;;;;5041959;27;86850;-42
2022/09/12 13:24:26;;;;;;;;;;;19.20;64.00;;;;;;5042096;27;87599;-42
2022/09/12 13:26:52;;;;;;;;;;;19.20;63.90;;;;;;5041909;27;87659;-42
2022/09/12 13:29:19;;;;;;;;;;;19.20;63.90;;;;;;5045028;27;87263;-42
2022/09/12 13:31:45;;;;;;;;;;;19.20;63.90;;;;;;5041619;27;88025;-42
2022/09/12 13:34:15;;;;;;;;;;;19.20;63.90;;;;;;5042689;27;86348;-42
2022/09/12 13:36:47;;;;;;;;;;;19.20;64.00;;;;;;5044461;27;87000;-42
2022/09/12 13:39:18;;;;;;;;;;;19.20;63.80;;;;;;5045179;28;87185;-42
2022/09/12 13:42:02;;;;;;;;;;;19.20;63.80;;;;;;5044555;27;88290;-42
2022/09/12 13:44:28;;;;;;;;;;;19.20;63.90;;;;;;5045418;27;88367;-42
2022/09/12 13:46:57;;;;;;;;;;;19.20;63.90;;;;;;5044986;27;88050;-42
2022/09/12 13:49:25;;;;;;;;;;;19.20;63.70;;;;;;5045437;27;87078;-42
2022/09/12 13:51:58;;;;;;;;;;;19.20;63.70;;;;;;5047770;28;87257;-42
2022/09/12 13:54:23;;;;;;;;;;;19.30;63.70;;;;;;5045033;27;87411;-42
2022/09/12 13:56:49;;;;;;;;;;;19.30;63.90;;;;;;5044921;28;88475;-42
2022/09/12 13:59:14;;;;;;;;;;;19.20;63.90;;;;;;5045116;27;87467;-42
2022/09/12 14:01:45;;;;;;;;;;;19.30;63.80;;;;;;5044894;28;87192;-42
2022/09/12 14:07:17;;;;;;;;;;;19.30;63.70;;;;;;5044018;28;88116;-42
2022/09/12 14:09:43;;;;;;;;;;;19.30;63.80;;;;;;5044701;28;87071;-42
2022/09/12 14:12:24;;;;;;;;;;;19.30;63.80;;;;;;5044846;27;86882;-42
2022/09/12 14:14:50;;;;;;;;;;;19.30;63.80;;;;;;5047589;28;87193;-42
2022/09/12 14:17:42;;;;;;;;;;;19.30;63.80;;;;;;5044574;28;88011;-42
2022/09/12 14:20:12;;;;;;;;;;;19.30;63.80;;;;;;5042279;28;88211;-42
2022/09/12 14:22:39;;;;;;;;;;;19.30;63.80;;;;;;5044284;28;87076;-42
2022/09/12 14:25:09;;;;;;;;;;;19.30;63.80;;;;;;5045187;27;87399;-42
2022/09/12 14:27:38;;;;;;;;;;;19.30;64.40;;;;;;5044063;27;89319;-42
2022/09/12 14:30:05;;;;;;;;;;;19.40;63.80;;;;;;5044547;27;87081;-42
2022/09/12 14:32:31;;;;;;;;;;;19.30;63.70;;;;;;5043943;27;87942;-42
2022/09/12 14:35:03;;;;;;;;;;;19.30;63.80;;;;;;5044177;28;88228;-42